Doris T — V2HR — position and weather

sailwx.info

Track history (hours):
 
Tides and Currents Weather Stations Pressure Air Temp Water Temp Dewpoint Dewpoint Depression Visibility Wind Speed Wind Dir Waves Ship Positions

Doris T

Last reported at 2014-Jul-24 03:30 UTC. Time now 2014-Jul-25 03:40 UTC.
Position N 39°01' W 009°51'.

; draft 5.2 m.

Type: Cargo ship. MMSI: 304010102.

Date/timePositionNaut miles runAvg speedWind from/ knotsBaromVisibWave heightAir tempDewpointWater temp
2014-Jul-24 03:30N 39°01' W 009°51'8 6.6
2014-Jul-24 02:19N 38°54' W 009°51'12 6.5
2014-Jul-24 00:30N 38°42' W 009°51'6 6.8
2014-Jul-23 23:33N 38°35' W 009°49'7 6.7
2014-Jul-23 22:31N 38°29' W 009°47'7 6.8
2014-Jul-23 21:26N 38°21' W 009°45'6 6.5
2014-Jul-23 20:30N 38°16' W 009°43'6 5.9
2014-Jul-23 19:25N 38°09' W 009°41'5 5.4
2014-Jul-23 18:31N 38°05' W 009°40'5 5.4
2014-Jul-23 17:32N 37°59' W 009°38'5 5.6
2014-Jul-23 16:33N 37°54' W 009°37'5 5.2
2014-Jul-23 15:30N 37°49' W 009°36'5 5.1
2014-Jul-23 14:32N 37°44' W 009°34'5 5.5
2014-Jul-23 13:33N 37°39' W 009°32'15 6.2
2014-Jul-23 11:10N 37°24' W 009°28'4 6.3
2014-Jul-23 10:32N 37°21' W 009°27'6 6.3
2014-Jul-23 09:33N 37°15' W 009°25'7 6.2
2014-Jul-23 08:29N 37°08' W 009°23'7 5.4
2014-Jul-23 07:09N 37°01' W 009°21'6 5.5
2014-Jul-23 06:09N 36°56' W 009°19'3 5.2
2014-Jul-23 05:33N 36°53' W 009°18'6 5.3
2014-Jul-23 04:25N 36°48' W 009°13'4 5.1
2014-Jul-23 03:33N 36°45' W 009°09'6 5.7
2014-Jul-23 02:33N 36°43' W 009°03'6 6.2
2014-Jul-23 01:30N 36°41' W 008°55'6 6.2
2014-Jul-23 00:33N 36°39' W 008°48'7 6.5
2014-Jul-22 23:33N 36°37' W 008°40'7 6.6
2014-Jul-22 22:33N 36°35' W 008°33'7 6.7
2014-Jul-22 21:33N 36°33' W 008°25'9 7.4
2014-Jul-22 20:20N 36°30' W 008°14'6 7.5
2014-Jul-22 19:33N 36°28' W 008°07'7 7.5
2014-Jul-22 18:33N 36°25' W 007°58'25 7.6
2014-Jul-22 15:13N 36°18' W 007°28'12 7.4
2014-Jul-22 13:33N 36°14' W 007°14'8 7.7
2014-Jul-22 12:33N 36°12' W 007°05'  
2014-Jul-20 02:24N 36°55' E 000°42'43 5.4
2014-Jul-19 18:24N 37°03' E 001°35'38 7.8
2014-Jul-19 13:33N 37°11' E 002°22'9 7.8
2014-Jul-19 12:24N 37°13' E 002°33'7 7.7
2014-Jul-19 11:33N 37°14' E 002°41'8 7.8
2014-Jul-19 10:33N 37°16' E 002°50'7 7.5
2014-Jul-19 09:33N 37°17' E 002°59'59 7.4
2014-Jul-19 01:32N 37°24' E 004°14'8 8.0
2014-Jul-19 00:32N 37°24' E 004°24'10 8.3
2014-Jul-18 23:19N 37°25' E 004°36'8 8.3
2014-Jul-18 22:21N 37°25' E 004°47'8 8.0
2014-Jul-18 21:23N 37°26' E 004°56'7 8.2
2014-Jul-18 20:31N 37°26' E 005°05'25 8.3
2014-Jul-18 17:33N 37°28' E 005°36'8 8.2
2014-Jul-18 16:33N 37°29' E 005°46'348 7.4
2014-Jul-16 17:18N 36°59' E 013°01'5 6.4
2014-Jul-16 16:33N 36°58' E 013°07'6 6.2
2014-Jul-16 15:33N 36°56' E 013°14'6 6.5
2014-Jul-16 14:33N 36°54' E 013°22'7 6.5
2014-Jul-16 13:33N 36°53' E 013°30'7 7.0
2014-Jul-16 12:33N 36°51' E 013°39'7 7.3
2014-Jul-16 11:33N 36°49' E 013°47'8 7.7
2014-Jul-16 10:33N 36°47' E 013°56'8 7.9
2014-Jul-16 09:33N 36°45' E 014°06'8 7.6
2014-Jul-16 08:33N 36°43' E 014°15'8 7.6
2014-Jul-16 07:33N 36°41' E 014°24'7 7.4
2014-Jul-16 06:33N 36°39' E 014°33'  
Track history (hours):
 
Tides and Currents Weather Stations Pressure Air Temp Water Temp Dewpoint Dewpoint Depression Visibility Wind Speed Wind Dir Waves Ship Positions

Doris T

Last reported at 2014-Jul-24 03:30 UTC. Time now 2014-Jul-25 03:40 UTC.
Position N 39°01' W 009°51'.

; draft 5.2 m.

Type: Cargo ship. MMSI: 304010102.

Date/timePositionNaut miles runAvg speedWind from/ knotsBaromVisibWave heightAir tempDewpointWater temp
2014-Jul-24 03:30N 39°01' W 009°51'8 6.6
2014-Jul-24 02:19N 38°54' W 009°51'12 6.5
2014-Jul-24 00:30N 38°42' W 009°51'6 6.8
2014-Jul-23 23:33N 38°35' W 009°49'7 6.7
2014-Jul-23 22:31N 38°29' W 009°47'7 6.8
2014-Jul-23 21:26N 38°21' W 009°45'6 6.5
2014-Jul-23 20:30N 38°16' W 009°43'6 5.9
2014-Jul-23 19:25N 38°09' W 009°41'5 5.4
2014-Jul-23 18:31N 38°05' W 009°40'5 5.4
2014-Jul-23 17:32N 37°59' W 009°38'5 5.6
2014-Jul-23 16:33N 37°54' W 009°37'5 5.2
2014-Jul-23 15:30N 37°49' W 009°36'5 5.1
2014-Jul-23 14:32N 37°44' W 009°34'5 5.5
2014-Jul-23 13:33N 37°39' W 009°32'15 6.2
2014-Jul-23 11:10N 37°24' W 009°28'4 6.3
2014-Jul-23 10:32N 37°21' W 009°27'6 6.3
2014-Jul-23 09:33N 37°15' W 009°25'7 6.2
2014-Jul-23 08:29N 37°08' W 009°23'7 5.4
2014-Jul-23 07:09N 37°01' W 009°21'6 5.5
2014-Jul-23 06:09N 36°56' W 009°19'3 5.2
2014-Jul-23 05:33N 36°53' W 009°18'6 5.3
2014-Jul-23 04:25N 36°48' W 009°13'4 5.1
2014-Jul-23 03:33N 36°45' W 009°09'6 5.7
2014-Jul-23 02:33N 36°43' W 009°03'6 6.2
2014-Jul-23 01:30N 36°41' W 008°55'6 6.2
2014-Jul-23 00:33N 36°39' W 008°48'7 6.5
2014-Jul-22 23:33N 36°37' W 008°40'7 6.6
2014-Jul-22 22:33N 36°35' W 008°33'7 6.7
2014-Jul-22 21:33N 36°33' W 008°25'9 7.4
2014-Jul-22 20:20N 36°30' W 008°14'6 7.5
2014-Jul-22 19:33N 36°28' W 008°07'7 7.5
2014-Jul-22 18:33N 36°25' W 007°58'25 7.6
2014-Jul-22 15:13N 36°18' W 007°28'12 7.4
2014-Jul-22 13:33N 36°14' W 007°14'8 7.7
2014-Jul-22 12:33N 36°12' W 007°05'  
2014-Jul-20 02:24N 36°55' E 000°42'43 5.4
2014-Jul-19 18:24N 37°03' E 001°35'38 7.8
2014-Jul-19 13:33N 37°11' E 002°22'9 7.8
2014-Jul-19 12:24N 37°13' E 002°33'7 7.7
2014-Jul-19 11:33N 37°14' E 002°41'8 7.8
2014-Jul-19 10:33N 37°16' E 002°50'7 7.5
2014-Jul-19 09:33N 37°17' E 002°59'59 7.4
2014-Jul-19 01:32N 37°24' E 004°14'8 8.0
2014-Jul-19 00:32N 37°24' E 004°24'10 8.3
2014-Jul-18 23:19N 37°25' E 004°36'8 8.3
2014-Jul-18 22:21N 37°25' E 004°47'8 8.0
2014-Jul-18 21:23N 37°26' E 004°56'7 8.2
2014-Jul-18 20:31N 37°26' E 005°05'25 8.3
2014-Jul-18 17:33N 37°28' E 005°36'8 8.2
2014-Jul-18 16:33N 37°29' E 005°46'348 7.4
2014-Jul-16 17:18N 36°59' E 013°01'5 6.4
2014-Jul-16 16:33N 36°58' E 013°07'6 6.2
2014-Jul-16 15:33N 36°56' E 013°14'6 6.5
2014-Jul-16 14:33N 36°54' E 013°22'7 6.5
2014-Jul-16 13:33N 36°53' E 013°30'7 7.0
2014-Jul-16 12:33N 36°51' E 013°39'7 7.3
2014-Jul-16 11:33N 36°49' E 013°47'8 7.7
2014-Jul-16 10:33N 36°47' E 013°56'8 7.9
2014-Jul-16 09:33N 36°45' E 014°06'8 7.6
2014-Jul-16 08:33N 36°43' E 014°15'8 7.6
2014-Jul-16 07:33N 36°41' E 014°24'7 7.4
2014-Jul-16 06:33N 36°39' E 014°33'  

Dump ship's entire track history